createdAt,value
2018-12-17T00:01:08.303Z,13.03
2018-12-17T00:03:37.644Z,16.17
2018-12-17T00:06:06.378Z,8.43
2018-12-17T00:08:35.614Z,14.80
2018-12-17T00:11:04.733Z,11.97
2018-12-17T00:13:33.669Z,15.70
2018-12-17T00:16:02.939Z,16.67
2018-12-17T00:18:32.205Z,15.73
2018-12-17T00:21:01.337Z,14.47
2018-12-17T00:23:30.383Z,13.80
2018-12-17T00:25:59.427Z,19.17
2018-12-17T00:28:28.187Z,18.63
2018-12-17T00:30:57.308Z,13.07
2018-12-17T00:33:26.402Z,13.97
2018-12-17T00:35:55.391Z,12.00
2018-12-17T00:38:24.620Z,13.10
2018-12-17T00:40:53.708Z,13.57
2018-12-17T00:43:22.996Z,15.90
2018-12-17T00:45:51.775Z,12.87
2018-12-17T00:48:21.013Z,13.87
2018-12-17T00:50:50.075Z,12.07
2018-12-17T00:53:18.769Z,13.47
2018-12-17T00:55:47.540Z,12.07
2018-12-17T00:58:16.550Z,11.43
2018-12-17T01:00:45.568Z,14.50
2018-12-17T01:03:14.373Z,14.63
2018-12-17T01:05:43.212Z,15.50
2018-12-17T01:08:12.473Z,10.73
2018-12-17T01:10:41.288Z,13.70
2018-12-17T01:13:10.299Z,18.17
2018-12-17T01:15:39.573Z,12.33
2018-12-17T01:18:08.724Z,13.63
2018-12-17T01:20:37.811Z,12.40
2018-12-17T01:23:06.680Z,12.90
2018-12-17T01:25:35.525Z,13.80
2018-12-17T01:28:04.762Z,11.40
2018-12-17T01:30:33.763Z,13.53
2018-12-17T01:33:02.573Z,15.17
2018-12-17T01:35:31.562Z,11.93
2018-12-17T01:38:00.431Z,14.47
2018-12-17T01:40:29.480Z,13.73
2018-12-17T01:42:58.409Z,13.03
2018-12-17T01:45:27.142Z,14.47
2018-12-17T01:47:55.831Z,12.73
2018-12-17T01:50:24.899Z,11.77
2018-12-17T01:52:53.938Z,11.10
2018-12-17T01:55:22.947Z,12.47
2018-12-17T01:57:51.978Z,16.37
2018-12-17T02:00:20.800Z,12.00
2018-12-17T02:02:49.856Z,13.50
2018-12-17T02:05:18.795Z,11.40
2018-12-17T02:07:47.885Z,9.60
2018-12-17T02:10:16.835Z,14.27
2018-12-17T02:12:45.733Z,15.37
2018-12-17T02:15:14.513Z,12.77
2018-12-17T02:17:43.398Z,11.67
2018-12-17T02:20:12.092Z,13.30
2018-12-17T02:22:41.199Z,13.10
2018-12-17T02:25:10.919Z,11.17
2018-12-17T02:27:39.759Z,10.90
2018-12-17T02:30:08.592Z,12.77
2018-12-17T02:32:37.286Z,12.30
2018-12-17T02:35:07.098Z,12.63
2018-12-17T02:37:35.766Z,15.13
2018-12-17T02:40:05.214Z,15.83
2018-12-17T02:42:34.112Z,12.03
2018-12-17T02:45:02.870Z,14.87
2018-12-17T02:47:31.581Z,16.07
2018-12-17T02:50:00.321Z,12.10
2018-12-17T02:52:29.062Z,17.17
2018-12-17T02:54:58.241Z,10.77
2018-12-17T02:57:27.417Z,24.97
2018-12-17T02:59:56.145Z,15.23
2018-12-17T03:02:25.226Z,28.33
2018-12-17T03:04:54.298Z,11.77
2018-12-17T03:07:23.464Z,12.33
2018-12-17T03:09:52.199Z,13.07
2018-12-17T03:12:21.127Z,25.20
2018-12-17T03:14:50.486Z,14.00
2018-12-17T03:17:19.452Z,14.83
2018-12-17T03:19:48.373Z,13.73
2018-12-17T03:22:17.552Z,12.50
2018-12-17T03:24:47.179Z,14.73
2018-12-17T03:27:16.156Z,13.97
2018-12-17T03:29:45.504Z,15.23
2018-12-17T03:32:14.665Z,11.27
2018-12-17T03:34:43.474Z,11.40
2018-12-17T03:37:12.232Z,13.13
2018-12-17T03:39:41.087Z,17.67
2018-12-17T03:42:10.379Z,14.10
2018-12-17T03:44:39.090Z,15.73
2018-12-17T03:47:08.579Z,14.37
2018-12-17T03:49:37.704Z,11.03
2018-12-17T03:52:06.362Z,13.97
2018-12-17T03:54:35.500Z,13.83
2018-12-17T03:57:04.584Z,14.60
2018-12-17T03:59:33.385Z,13.13
2018-12-17T04:02:02.405Z,12.87
2018-12-17T04:04:31.459Z,14.47
2018-12-17T04:07:00.641Z,15.30
2018-12-17T04:09:29.309Z,14.87
2018-12-17T04:11:58.519Z,17.13
2018-12-17T04:14:27.276Z,13.20
2018-12-17T04:16:56.253Z,11.00
2018-12-17T04:19:25.506Z,11.87
2018-12-17T04:21:54.701Z,14.13
2018-12-17T04:24:23.468Z,10.87
2018-12-17T04:26:52.502Z,12.37
2018-12-17T04:29:21.471Z,13.83
2018-12-17T04:31:50.244Z,13.90
2018-12-17T04:34:19.144Z,14.17
2018-12-17T04:36:48.030Z,12.87
2018-12-17T04:39:16.869Z,14.60
2018-12-17T04:41:45.969Z,13.87
2018-12-17T04:44:14.797Z,12.17
2018-12-17T04:46:43.557Z,12.73
2018-12-17T04:49:12.388Z,13.30
2018-12-17T04:51:41.155Z,11.93
2018-12-17T04:54:10.117Z,12.40
2018-12-17T04:56:38.814Z,13.90
2018-12-17T04:59:14.348Z,11.30
2018-12-17T05:01:38.663Z,13.57
2018-12-17T05:04:07.630Z,14.23
2018-12-17T05:06:36.715Z,9.60
2018-12-17T05:09:08.232Z,15.23
2018-12-17T05:11:36.953Z,11.30
2018-12-17T05:14:05.946Z,12.93
2018-12-17T05:16:34.992Z,11.07
2018-12-17T05:19:03.941Z,11.83
2018-12-17T05:21:32.658Z,10.17
2018-12-17T05:24:01.357Z,12.47
2018-12-17T05:26:30.093Z,12.90
2018-12-17T05:28:58.974Z,19.00
2018-12-17T05:31:27.715Z,12.17
2018-12-17T05:33:56.711Z,16.20
2018-12-17T05:36:25.434Z,15.87
2018-12-17T05:38:54.561Z,11.60
2018-12-17T05:41:23.284Z,12.57
2018-12-17T05:43:52.247Z,12.37
2018-12-17T05:46:21.259Z,15.77
2018-12-17T05:48:50.413Z,14.27
2018-12-17T05:51:19.185Z,15.47
2018-12-17T05:53:47.935Z,14.90
2018-12-17T05:56:17.108Z,19.43
2018-12-17T05:58:46.132Z,16.20
2018-12-17T06:01:14.932Z,14.63
2018-12-17T06:03:44.266Z,13.47
2018-12-17T06:06:13.246Z,13.10
2018-12-17T06:08:42.479Z,18.70
2018-12-17T06:11:11.488Z,15.93
2018-12-17T06:13:40.576Z,16.20
2018-12-17T06:16:09.556Z,17.80
2018-12-17T06:18:39.208Z,16.43
2018-12-17T06:21:08.126Z,19.70
2018-12-17T06:23:37.156Z,16.50
2018-12-17T06:26:05.989Z,17.50
2018-12-17T06:28:35.003Z,19.27
2018-12-17T06:31:04.130Z,18.90
2018-12-17T06:33:32.890Z,15.90
2018-12-17T06:36:01.692Z,19.33
2018-12-17T06:38:30.812Z,19.37
2018-12-17T06:40:59.497Z,19.97
2018-12-17T06:43:28.698Z,18.27
2018-12-17T06:45:57.691Z,16.97
2018-12-17T06:48:26.787Z,22.10
2018-12-17T06:50:56.265Z,21.37
2018-12-17T06:53:25.189Z,22.50
2018-12-17T06:55:54.166Z,21.93
2018-12-17T06:58:23.481Z,22.40
2018-12-17T07:00:52.181Z,21.60
2018-12-17T07:03:21.246Z,26.43
2018-12-17T07:05:50.269Z,18.33
2018-12-17T07:08:19.877Z,21.13
2018-12-17T07:10:49.223Z,24.70
2018-12-17T07:13:18.064Z,24.63
2018-12-17T07:15:46.847Z,20.13
2018-12-17T07:18:15.940Z,22.20
2018-12-17T07:20:44.771Z,18.23
2018-12-17T07:23:13.544Z,31.90
2018-12-17T07:25:42.610Z,37.50
2018-12-17T07:28:11.706Z,19.73
2018-12-17T07:30:40.725Z,23.40
2018-12-17T07:33:09.609Z,15.47
2018-12-17T07:35:38.456Z,19.17
2018-12-17T07:38:07.578Z,18.63
2018-12-17T07:40:36.785Z,41.37
2018-12-17T07:43:06.074Z,17.23
2018-12-17T07:45:34.835Z,23.73
2018-12-17T07:48:04.266Z,17.80
2018-12-17T07:50:33.257Z,23.23
2018-12-17T07:53:02.026Z,22.13
2018-12-17T07:55:31.154Z,17.20
2018-12-17T07:58:00.186Z,20.43
2018-12-17T08:00:29.288Z,18.13
2018-12-17T08:02:58.039Z,21.93
2018-12-17T08:05:27.742Z,23.77
2018-12-17T08:07:56.840Z,24.57
2018-12-17T08:10:27.078Z,33.50
2018-12-17T08:12:57.009Z,17.90
2018-12-17T08:15:26.949Z,27.40
2018-12-17T08:18:33.767Z,19.27
2018-12-17T08:21:03.042Z,20.40
2018-12-17T08:23:32.252Z,22.50
2018-12-17T08:26:01.131Z,17.53
2018-12-17T08:28:30.312Z,17.30
2018-12-17T08:30:59.557Z,20.77
2018-12-17T08:33:28.565Z,20.47
2018-12-17T08:35:57.750Z,22.00
2018-12-17T08:38:26.912Z,16.97
2018-12-17T08:40:55.940Z,16.13
2018-12-17T08:43:24.982Z,12.63
2018-12-17T08:45:54.028Z,22.87
2018-12-17T08:48:22.763Z,16.27
2018-12-17T08:50:51.682Z,19.00
2018-12-17T08:53:20.970Z,20.80
2018-12-17T08:55:49.806Z,42.53
2018-12-17T08:58:19.292Z,29.67
2018-12-17T09:00:48.093Z,26.17
2018-12-17T09:03:17.418Z,20.07
2018-12-17T09:05:46.393Z,19.60
2018-12-17T09:08:21.721Z,18.97
2018-12-17T09:10:50.819Z,18.33
2018-12-17T09:13:23.603Z,19.60
2018-12-17T09:15:52.953Z,22.97
2018-12-17T09:18:27.191Z,14.43
2018-12-17T09:20:56.218Z,18.30
2018-12-17T09:23:26.152Z,20.93
2018-12-17T09:25:54.915Z,22.67
2018-12-17T09:28:24.214Z,17.67
2018-12-17T09:30:53.179Z,25.27
2018-12-17T09:33:22.196Z,20.30
2018-12-17T09:35:51.402Z,20.27
2018-12-17T09:38:20.210Z,19.43
2018-12-17T09:40:48.971Z,20.10
2018-12-17T09:43:17.897Z,17.60
2018-12-17T09:45:46.749Z,20.93
2018-12-17T09:48:16.061Z,17.50
2018-12-17T09:50:45.042Z,20.07
2018-12-17T09:53:14.139Z,18.70
2018-12-17T09:55:43.153Z,18.90
2018-12-17T09:58:11.944Z,19.00
2018-12-17T10:00:40.704Z,21.60
2018-12-17T10:03:09.537Z,21.87
2018-12-17T10:05:38.721Z,23.73
2018-12-17T10:08:07.640Z,25.00
2018-12-17T10:10:36.518Z,19.83
2018-12-17T10:13:05.707Z,25.60
2018-12-17T10:15:34.874Z,31.57
2018-12-17T10:18:03.571Z,24.30
2018-12-17T10:20:32.761Z,21.93
2018-12-17T10:23:01.480Z,22.87
2018-12-17T10:25:30.982Z,21.83
2018-12-17T10:28:00.063Z,26.70
2018-12-17T10:30:32.480Z,22.43
2018-12-17T10:33:00.308Z,21.23
2018-12-17T10:35:29.157Z,23.50
2018-12-17T10:37:57.970Z,22.50
2018-12-17T10:40:27.165Z,21.83
2018-12-17T10:42:56.374Z,23.87
2018-12-17T10:45:25.512Z,26.00
2018-12-17T10:47:54.259Z,23.00
2018-12-17T10:50:23.358Z,16.63
2018-12-17T10:52:52.343Z,22.10
2018-12-17T10:55:21.352Z,19.17
2018-12-17T10:57:50.357Z,15.67
2018-12-17T11:00:24.795Z,20.40
2018-12-17T11:02:55.907Z,18.73
2018-12-17T11:05:24.951Z,20.63
2018-12-17T11:07:53.807Z,19.07
2018-12-17T11:10:22.578Z,17.30
2018-12-17T11:12:51.905Z,16.30
2018-12-17T11:15:20.857Z,20.13
2018-12-17T11:17:49.771Z,21.40
2018-12-17T11:20:18.767Z,25.63
2018-12-17T11:22:47.857Z,19.70
2018-12-17T11:25:16.852Z,22.57
2018-12-17T11:27:46.023Z,19.23
2018-12-17T11:30:14.922Z,18.67
2018-12-17T11:32:44.949Z,18.63
2018-12-17T11:35:14.359Z,19.17
2018-12-17T11:37:43.459Z,33.63
2018-12-17T11:40:12.641Z,17.57
2018-12-17T11:42:41.645Z,17.63
2018-12-17T11:45:10.646Z,20.50
2018-12-17T11:47:39.733Z,18.93
2018-12-17T11:50:09.216Z,20.00
2018-12-17T11:52:38.240Z,25.57
2018-12-17T11:55:07.360Z,26.67
2018-12-17T11:58:03.980Z,22.87
2018-12-17T12:00:33.011Z,21.40
2018-12-17T12:03:01.967Z,23.47
2018-12-17T12:05:30.690Z,19.53
2018-12-17T12:07:59.632Z,18.53
2018-12-17T12:10:28.860Z,17.80
2018-12-17T12:12:57.595Z,15.57
2018-12-17T12:15:26.723Z,14.27
2018-12-17T12:17:55.644Z,14.57
2018-12-17T12:20:24.842Z,16.77
2018-12-17T12:22:54.096Z,19.27
2018-12-17T12:25:22.941Z,19.60
2018-12-17T12:27:52.005Z,13.37
2018-12-17T12:30:20.745Z,18.90
2018-12-17T12:32:49.782Z,21.67
2018-12-17T12:35:18.570Z,15.77
2018-12-17T12:37:47.501Z,16.03
2018-12-17T12:40:16.657Z,17.13
2018-12-17T12:42:51.644Z,18.63
2018-12-17T12:45:16.881Z,20.77
2018-12-17T12:47:45.652Z,22.90
2018-12-17T12:50:14.587Z,21.27
2018-12-17T12:52:43.308Z,17.43
2018-12-17T12:55:12.464Z,31.07
2018-12-17T12:57:41.161Z,25.77
2018-12-17T13:00:13.495Z,29.73
2018-12-17T13:02:42.891Z,25.07
2018-12-17T13:05:11.947Z,29.07
2018-12-17T13:07:41.223Z,19.37
2018-12-17T13:10:11.228Z,26.00
2018-12-17T13:12:40.608Z,20.13
2018-12-17T13:15:10.667Z,22.80
2018-12-17T13:17:39.830Z,19.23
2018-12-17T13:20:10.199Z,21.10
2018-12-17T13:22:39.281Z,25.30
2018-12-17T13:25:12.997Z,25.30
2018-12-17T13:27:41.889Z,25.17
2018-12-17T13:30:11.296Z,22.10
2018-12-17T13:32:40.039Z,25.87
2018-12-17T13:35:09.879Z,30.60
2018-12-17T13:37:39.067Z,28.50
2018-12-17T13:40:09.927Z,23.17
2018-12-17T13:42:39.117Z,21.70
2018-12-17T13:45:08.068Z,30.73
2018-12-17T13:47:37.111Z,23.80
2018-12-17T13:50:41.691Z,25.97
2018-12-17T13:53:15.950Z,20.97
2018-12-17T13:55:45.144Z,28.90
2018-12-17T13:58:14.356Z,23.17
2018-12-17T14:00:43.431Z,21.93
2018-12-17T14:03:12.562Z,18.53
2018-12-17T14:05:41.721Z,24.40
2018-12-17T14:08:10.491Z,22.67
2018-12-17T14:10:44.304Z,23.23
2018-12-17T14:13:13.229Z,26.23
2018-12-17T14:15:48.150Z,23.23
2018-12-17T14:18:22.395Z,28.43
2018-12-17T14:20:56.662Z,23.17
2018-12-17T14:23:25.446Z,20.57
2018-12-17T14:25:54.207Z,24.77
2018-12-17T14:28:23.997Z,23.27
2018-12-17T14:30:52.930Z,23.77
2018-12-17T14:33:21.884Z,22.73
2018-12-17T14:35:56.073Z,23.80
2018-12-17T14:38:25.173Z,23.60
2018-12-17T14:40:53.925Z,20.97
2018-12-17T14:43:22.942Z,27.00
2018-12-17T14:45:52.092Z,28.80
2018-12-17T14:48:21.130Z,21.07
2018-12-17T14:50:50.350Z,21.47
2018-12-17T14:53:19.462Z,24.00
2018-12-17T14:55:48.606Z,26.87
2018-12-17T14:58:17.631Z,39.17
2018-12-17T15:00:47.281Z,30.00
2018-12-17T15:03:16.285Z,25.13
2018-12-17T15:05:45.139Z,26.33
2018-12-17T15:08:14.140Z,22.63
2018-12-17T15:10:43.201Z,24.90
2018-12-17T15:13:12.457Z,25.20
2018-12-17T15:15:41.203Z,35.70
2018-12-17T15:18:10.192Z,44.07
2018-12-17T15:20:39.027Z,34.77
2018-12-17T15:23:07.807Z,34.80
2018-12-17T15:25:36.868Z,26.47
2018-12-17T15:28:05.560Z,23.93
2018-12-17T15:30:35.486Z,25.93
2018-12-17T15:33:04.462Z,28.23
2018-12-17T15:35:33.483Z,28.17
2018-12-17T15:38:02.456Z,25.63
2018-12-17T15:40:31.845Z,33.27
2018-12-17T15:43:00.558Z,31.03
2018-12-17T15:45:29.314Z,28.20
2018-12-17T15:47:58.321Z,33.33
2018-12-17T15:50:27.206Z,37.30
2018-12-17T15:52:56.110Z,40.53
2018-12-17T15:55:24.956Z,42.00
2018-12-17T15:57:53.898Z,38.73
2018-12-17T16:00:22.814Z,49.40
2018-12-17T16:02:51.576Z,38.10
2018-12-17T16:05:20.561Z,35.73
2018-12-17T16:07:49.644Z,35.60
2018-12-17T16:10:18.526Z,35.53
2018-12-17T16:12:47.375Z,35.90
2018-12-17T16:15:27.191Z,43.13
2018-12-17T16:17:55.898Z,45.70
2018-12-17T16:20:24.676Z,47.70
2018-12-17T16:22:53.747Z,36.73
2018-12-17T16:25:22.606Z,34.33
2018-12-17T16:27:51.426Z,40.10
2018-12-17T16:30:20.573Z,35.70
2018-12-17T16:32:49.857Z,38.00
2018-12-17T16:35:18.952Z,33.50
2018-12-17T16:37:47.830Z,48.07
2018-12-17T16:40:16.622Z,46.13
2018-12-17T16:42:45.624Z,29.20
2018-12-17T16:45:14.752Z,45.50
2018-12-17T16:47:43.884Z,38.87
2018-12-17T16:50:12.715Z,35.63
2018-12-17T16:52:41.486Z,47.53
2018-12-17T16:55:10.569Z,44.00
2018-12-17T16:57:39.508Z,53.03
2018-12-17T17:00:10.065Z,48.33
2018-12-17T17:02:39.017Z,40.47
2018-12-17T17:05:08.121Z,51.10
2018-12-17T17:07:37.827Z,51.77
2018-12-17T17:10:09.061Z,54.40
2018-12-17T17:12:38.271Z,57.07
2018-12-17T17:15:10.557Z,40.43
2018-12-17T17:17:39.362Z,36.20
2018-12-17T17:20:09.683Z,41.83
2018-12-17T17:22:38.611Z,41.03
2018-12-17T17:25:07.596Z,44.43
2018-12-17T17:27:36.403Z,40.90
2018-12-17T17:30:05.991Z,46.27
2018-12-17T17:32:34.923Z,47.07
2018-12-17T17:35:04.145Z,41.73
2018-12-17T17:37:32.904Z,47.70
2018-12-17T17:40:01.931Z,54.03
2018-12-17T17:42:31.430Z,60.27
2018-12-17T17:45:00.327Z,56.40
2018-12-17T17:47:29.121Z,59.93
2018-12-17T17:49:57.914Z,54.37
2018-12-17T17:52:27.122Z,57.10
2018-12-17T17:54:55.793Z,73.53
2018-12-17T17:57:24.773Z,61.20
2018-12-17T17:59:53.474Z,66.23
2018-12-17T18:02:22.491Z,58.77
2018-12-17T18:04:51.434Z,57.93
2018-12-17T18:07:20.483Z,55.80
2018-12-17T18:09:49.438Z,63.27
2018-12-17T18:12:18.227Z,74.77
2018-12-17T18:14:47.272Z,75.90
2018-12-17T18:17:15.937Z,72.20
2018-12-17T18:19:44.763Z,65.80
2018-12-17T18:22:13.598Z,53.97
2018-12-17T18:24:42.706Z,61.60
2018-12-17T18:27:11.659Z,58.07
2018-12-17T18:29:40.816Z,61.50
2018-12-17T18:32:09.660Z,61.57
2018-12-17T18:34:38.312Z,65.10
2018-12-17T18:37:07.358Z,65.90
2018-12-17T18:39:36.389Z,59.87
2018-12-17T18:42:05.308Z,71.40
2018-12-17T18:44:34.553Z,64.73
2018-12-17T18:47:03.695Z,63.83
2018-12-17T18:49:32.583Z,61.97
2018-12-17T18:52:01.607Z,69.80
2018-12-17T18:54:30.670Z,66.97
2018-12-17T18:56:59.465Z,65.50
2018-12-17T18:59:28.246Z,72.37
2018-12-17T19:01:57.163Z,63.63
2018-12-17T19:04:26.112Z,69.60
2018-12-17T19:06:54.985Z,74.70
2018-12-17T19:09:23.932Z,68.10
2018-12-17T19:11:53.020Z,66.30
2018-12-17T19:14:21.934Z,56.37
2018-12-17T19:16:50.835Z,61.37
2018-12-17T19:19:20.282Z,68.90
2018-12-17T19:21:49.108Z,64.63
2018-12-17T19:24:17.908Z,66.33
2018-12-17T19:26:46.957Z,66.83
2018-12-17T19:29:15.736Z,67.07
2018-12-17T19:31:44.598Z,66.63
2018-12-17T19:34:13.286Z,66.90
2018-12-17T19:36:42.357Z,72.07
2018-12-17T19:39:11.377Z,75.17
2018-12-17T19:41:40.101Z,62.70
2018-12-17T19:44:09.111Z,68.07
2018-12-17T19:46:37.909Z,64.77
2018-12-17T19:49:06.823Z,62.67
2018-12-17T19:51:35.728Z,72.80
2018-12-17T19:54:04.663Z,89.87
2018-12-17T19:56:33.651Z,65.67
2018-12-17T19:59:02.373Z,61.80
2018-12-17T20:01:31.150Z,55.53
2018-12-17T20:04:00.305Z,54.37
2018-12-17T20:06:29.053Z,55.87
2018-12-17T20:08:58.003Z,51.83
2018-12-17T20:11:26.914Z,57.27
2018-12-17T20:13:55.911Z,57.63
2018-12-17T20:16:24.829Z,63.93
2018-12-17T20:18:53.795Z,57.80
2018-12-17T20:21:22.930Z,55.90
2018-12-17T20:23:52.287Z,51.37
2018-12-17T20:26:20.975Z,51.70
2018-12-17T20:28:50.219Z,53.80
2018-12-17T20:31:19.129Z,61.13
2018-12-17T20:33:48.196Z,55.13
2018-12-17T20:36:17.033Z,59.33
2018-12-17T20:38:46.115Z,58.60
2018-12-17T20:41:15.109Z,52.23
2018-12-17T20:43:43.959Z,52.83
2018-12-17T20:46:12.963Z,49.40
2018-12-17T20:48:41.720Z,54.60
2018-12-17T20:51:11.306Z,48.70
2018-12-17T20:53:40.683Z,47.37
2018-12-17T20:56:09.586Z,53.13
2018-12-17T20:58:38.298Z,49.77
2018-12-17T21:01:07.305Z,43.67
2018-12-17T21:03:36.479Z,43.57
2018-12-17T21:06:05.175Z,42.23
2018-12-17T21:08:34.155Z,45.23
2018-12-17T21:11:03.144Z,44.53
2018-12-17T21:13:31.914Z,43.83
2018-12-17T21:16:00.847Z,43.40
2018-12-17T21:18:29.696Z,38.20
2018-12-17T21:20:58.413Z,45.57
2018-12-17T21:23:27.807Z,45.47
2018-12-17T21:25:56.684Z,36.20
2018-12-17T21:28:25.804Z,38.63
2018-12-17T21:30:54.591Z,40.57
2018-12-17T21:33:23.722Z,35.63
2018-12-17T21:35:52.879Z,42.03
2018-12-17T21:38:21.572Z,35.40
2018-12-17T21:40:50.264Z,28.43
2018-12-17T21:43:19.351Z,39.70
2018-12-17T21:45:48.339Z,42.03
2018-12-17T21:48:17.214Z,31.47
2018-12-17T21:50:46.257Z,30.03
2018-12-17T21:53:15.429Z,25.57
2018-12-17T21:55:44.509Z,27.90
2018-12-17T21:58:13.618Z,33.57
2018-12-17T22:00:42.322Z,30.40
2018-12-17T22:03:13.336Z,33.83
2018-12-17T22:05:42.547Z,30.83
2018-12-17T22:08:11.268Z,34.53
2018-12-17T22:10:40.420Z,29.63
2018-12-17T22:13:09.198Z,33.27
2018-12-17T22:15:37.927Z,36.73
2018-12-17T22:18:06.856Z,33.77
2018-12-17T22:20:35.894Z,33.37
2018-12-17T22:23:04.726Z,31.47
2018-12-17T22:25:33.781Z,31.53
2018-12-17T22:28:02.540Z,27.23
2018-12-17T22:30:31.657Z,32.33
2018-12-17T22:33:00.654Z,33.00
2018-12-17T22:35:29.419Z,32.37
2018-12-17T22:37:58.437Z,29.37
2018-12-17T22:40:27.799Z,31.53
2018-12-17T22:42:56.869Z,34.87
2018-12-17T22:45:25.643Z,32.07
2018-12-17T22:47:54.710Z,33.50
2018-12-17T22:50:23.843Z,36.33
2018-12-17T22:52:53.128Z,34.43
2018-12-17T22:55:22.096Z,36.03
2018-12-17T22:57:51.190Z,41.23
2018-12-17T23:00:20.936Z,41.30
2018-12-17T23:02:49.906Z,43.73
2018-12-17T23:05:18.902Z,38.13
2018-12-17T23:07:48.055Z,33.73
2018-12-17T23:10:27.762Z,34.77
2018-12-17T23:13:07.336Z,29.10
2018-12-17T23:15:47.227Z,30.90
2018-12-17T23:18:14.894Z,28.27
2018-12-17T23:20:44.395Z,32.43
2018-12-17T23:23:13.413Z,34.37
2018-12-17T23:25:42.183Z,39.00
2018-12-17T23:28:11.378Z,39.23
2018-12-17T23:30:40.503Z,35.60
2018-12-17T23:33:09.212Z,36.53
2018-12-17T23:35:37.936Z,36.30
2018-12-17T23:38:07.139Z,37.60
2018-12-17T23:40:35.822Z,38.10
2018-12-17T23:43:05.029Z,42.27
2018-12-17T23:45:33.950Z,40.83
2018-12-17T23:48:03.133Z,38.60
2018-12-17T23:50:31.847Z,39.77
2018-12-17T23:53:01.025Z,38.73
2018-12-17T23:55:33.137Z,42.13
2018-12-17T23:58:01.947Z,40.07
